sensor_id;sensor_type;location;lat;lon;timestamp;P1;durP1;ratioP1;P2;durP2;ratioP2
11496;SDS011;5805;51.542;7.230;2022-07-25T00:01:53;6.60;;;5.97;;
11496;SDS011;5805;51.542;7.230;2022-07-25T00:04:18;6.47;;;5.88;;
11496;SDS011;5805;51.542;7.230;2022-07-25T00:06:44;6.85;;;6.00;;
11496;SDS011;5805;51.542;7.230;2022-07-25T00:09:10;6.70;;;5.95;;
11496;SDS011;5805;51.542;7.230;2022-07-25T00:11:36;7.00;;;6.30;;
11496;SDS011;5805;51.542;7.230;2022-07-25T00:14:02;7.28;;;6.10;;
11496;SDS011;5805;51.542;7.230;2022-07-25T00:16:28;6.40;;;5.80;;
11496;SDS011;5805;51.542;7.230;2022-07-25T00:18:55;5.53;;;5.03;;
11496;SDS011;5805;51.542;7.230;2022-07-25T00:21:21;7.28;;;5.32;;
11496;SDS011;5805;51.542;7.230;2022-07-25T00:23:47;6.60;;;5.10;;
11496;SDS011;5805;51.542;7.230;2022-07-25T00:26:12;6.72;;;5.32;;
11496;SDS011;5805;51.542;7.230;2022-07-25T00:28:38;5.25;;;4.75;;
11496;SDS011;5805;51.542;7.230;2022-07-25T00:31:04;7.72;;;5.00;;
11496;SDS011;5805;51.542;7.230;2022-07-25T00:33:30;9.50;;;4.82;;
11496;SDS011;5805;51.542;7.230;2022-07-25T00:35:57;7.60;;;5.18;;
11496;SDS011;5805;51.542;7.230;2022-07-25T00:38:23;5.10;;;4.45;;
11496;SDS011;5805;51.542;7.230;2022-07-25T00:40:49;5.65;;;4.75;;
11496;SDS011;5805;51.542;7.230;2022-07-25T00:43:14;5.45;;;4.93;;
11496;SDS011;5805;51.542;7.230;2022-07-25T00:45:40;6.30;;;4.70;;
11496;SDS011;5805;51.542;7.230;2022-07-25T00:48:06;5.38;;;4.78;;
11496;SDS011;5805;51.542;7.230;2022-07-25T00:50:31;9.90;;;4.90;;
11496;SDS011;5805;51.542;7.230;2022-07-25T00:52:58;6.65;;;4.65;;
11496;SDS011;5805;51.542;7.230;2022-07-25T00:55:24;7.13;;;4.43;;
11496;SDS011;5805;51.542;7.230;2022-07-25T00:57:50;6.40;;;4.55;;
11496;SDS011;5805;51.542;7.230;2022-07-25T01:00:16;7.35;;;4.40;;
11496;SDS011;5805;51.542;7.230;2022-07-25T01:02:42;5.55;;;5.05;;
11496;SDS011;5805;51.542;7.230;2022-07-25T01:05:10;4.45;;;4.05;;
11496;SDS011;5805;51.542;7.230;2022-07-25T01:07:36;5.82;;;4.35;;
11496;SDS011;5805;51.542;7.230;2022-07-25T01:10:05;4.70;;;4.20;;
11496;SDS011;5805;51.542;7.230;2022-07-25T01:12:31;4.90;;;4.43;;
11496;SDS011;5805;51.542;7.230;2022-07-25T01:15:07;5.60;;;4.28;;
11496;SDS011;5805;51.542;7.230;2022-07-25T01:17:34;4.85;;;4.40;;
11496;SDS011;5805;51.542;7.230;2022-07-25T01:19:59;5.05;;;4.57;;
11496;SDS011;5805;51.542;7.230;2022-07-25T01:22:26;4.88;;;4.32;;
11496;SDS011;5805;51.542;7.230;2022-07-25T01:24:52;6.40;;;4.63;;
11496;SDS011;5805;51.542;7.230;2022-07-25T01:27:18;5.40;;;4.10;;
11496;SDS011;5805;51.542;7.230;2022-07-25T01:29:43;5.03;;;4.53;;
11496;SDS011;5805;51.542;7.230;2022-07-25T01:32:10;4.93;;;4.43;;
11496;SDS011;5805;51.542;7.230;2022-07-25T01:34:36;5.47;;;4.97;;
11496;SDS011;5805;51.542;7.230;2022-07-25T01:37:01;8.52;;;4.90;;
11496;SDS011;5805;51.542;7.230;2022-07-25T01:39:29;5.47;;;4.72;;
11496;SDS011;5805;51.542;7.230;2022-07-25T01:41:54;5.65;;;4.45;;
11496;SDS011;5805;51.542;7.230;2022-07-25T01:44:20;5.35;;;4.53;;
11496;SDS011;5805;51.542;7.230;2022-07-25T01:46:45;5.85;;;4.70;;
11496;SDS011;5805;51.542;7.230;2022-07-25T01:49:11;5.28;;;4.78;;
11496;SDS011;5805;51.542;7.230;2022-07-25T01:51:37;4.68;;;4.28;;
11496;SDS011;5805;51.542;7.230;2022-07-25T01:54:03;4.95;;;4.43;;
11496;SDS011;5805;51.542;7.230;2022-07-25T01:56:30;4.97;;;4.47;;
11496;SDS011;5805;51.542;7.230;2022-07-25T01:58:56;6.32;;;4.53;;
11496;SDS011;5805;51.542;7.230;2022-07-25T02:01:21;4.70;;;4.20;;
11496;SDS011;5805;51.542;7.230;2022-07-25T02:03:47;7.78;;;4.65;;
11496;SDS011;5805;51.542;7.230;2022-07-25T02:06:13;4.82;;;4.38;;
11496;SDS011;5805;51.542;7.230;2022-07-25T02:08:38;6.53;;;4.20;;
11496;SDS011;5805;51.542;7.230;2022-07-25T02:11:04;4.95;;;4.03;;
11496;SDS011;5805;51.542;7.230;2022-07-25T02:13:31;8.02;;;4.97;;
11496;SDS011;5805;51.542;7.230;2022-07-25T02:15:57;6.40;;;4.90;;
11496;SDS011;5805;51.542;7.230;2022-07-25T02:18:23;7.03;;;4.68;;
11496;SDS011;5805;51.542;7.230;2022-07-25T02:20:48;5.35;;;4.20;;
11496;SDS011;5805;51.542;7.230;2022-07-25T02:23:14;4.60;;;4.20;;
11496;SDS011;5805;51.542;7.230;2022-07-25T02:25:39;5.47;;;4.72;;
11496;SDS011;5805;51.542;7.230;2022-07-25T02:28:05;4.95;;;4.45;;
11496;SDS011;5805;51.542;7.230;2022-07-25T02:30:32;6.43;;;4.68;;
11496;SDS011;5805;51.542;7.230;2022-07-25T02:32:58;7.75;;;4.70;;
11496;SDS011;5805;51.542;7.230;2022-07-25T02:35:24;4.82;;;4.40;;
11496;SDS011;5805;51.542;7.230;2022-07-25T02:37:49;4.95;;;4.45;;
11496;SDS011;5805;51.542;7.230;2022-07-25T02:40:15;7.15;;;4.25;;
11496;SDS011;5805;51.542;7.230;2022-07-25T02:42:41;6.82;;;4.55;;
11496;SDS011;5805;51.542;7.230;2022-07-25T02:45:07;5.18;;;4.45;;
11496;SDS011;5805;51.542;7.230;2022-07-25T02:47:34;5.20;;;4.72;;
11496;SDS011;5805;51.542;7.230;2022-07-25T02:50:00;5.47;;;4.45;;
11496;SDS011;5805;51.542;7.230;2022-07-25T02:52:26;4.53;;;4.13;;
11496;SDS011;5805;51.542;7.230;2022-07-25T02:54:51;6.25;;;5.30;;
11496;SDS011;5805;51.542;7.230;2022-07-25T02:57:17;4.68;;;4.28;;
11496;SDS011;5805;51.542;7.230;2022-07-25T02:59:43;5.93;;;4.75;;
11496;SDS011;5805;51.542;7.230;2022-07-25T03:02:08;7.00;;;4.47;;
11496;SDS011;5805;51.542;7.230;2022-07-25T03:04:35;6.60;;;4.28;;
11496;SDS011;5805;51.542;7.230;2022-07-25T03:07:01;5.65;;;5.15;;
11496;SDS011;5805;51.542;7.230;2022-07-25T03:09:27;5.88;;;4.35;;
11496;SDS011;5805;51.542;7.230;2022-07-25T03:11:52;4.93;;;4.32;;
11496;SDS011;5805;51.542;7.230;2022-07-25T03:14:18;4.75;;;4.30;;
11496;SDS011;5805;51.542;7.230;2022-07-25T03:16:44;4.70;;;4.30;;
11496;SDS011;5805;51.542;7.230;2022-07-25T03:19:09;5.80;;;4.45;;
11496;SDS011;5805;51.542;7.230;2022-07-25T03:21:36;7.97;;;4.85;;
11496;SDS011;5805;51.542;7.230;2022-07-25T03:24:02;4.68;;;4.18;;
11496;SDS011;5805;51.542;7.230;2022-07-25T03:26:28;5.57;;;4.28;;
11496;SDS011;5805;51.542;7.230;2022-07-25T03:28:54;5.28;;;4.78;;
11496;SDS011;5805;51.542;7.230;2022-07-25T03:31:20;8.23;;;4.55;;
11496;SDS011;5805;51.542;7.230;2022-07-25T03:33:45;5.38;;;4.70;;
11496;SDS011;5805;51.542;7.230;2022-07-25T03:36:11;4.95;;;4.50;;
11496;SDS011;5805;51.542;7.230;2022-07-25T03:38:38;6.10;;;4.68;;
11496;SDS011;5805;51.542;7.230;2022-07-25T03:41:04;5.45;;;4.10;;
11496;SDS011;5805;51.542;7.230;2022-07-25T03:43:30;5.13;;;4.63;;
11496;SDS011;5805;51.542;7.230;2022-07-25T03:45:55;6.95;;;4.40;;
11496;SDS011;5805;51.542;7.230;2022-07-25T03:48:21;5.53;;;5.00;;
11496;SDS011;5805;51.542;7.230;2022-07-25T03:50:47;6.25;;;4.32;;
11496;SDS011;5805;51.542;7.230;2022-07-25T03:53:12;8.18;;;4.60;;
11496;SDS011;5805;51.542;7.230;2022-07-25T03:55:40;6.63;;;4.57;;
11496;SDS011;5805;51.542;7.230;2022-07-25T03:58:05;7.18;;;4.53;;
11496;SDS011;5805;51.542;7.230;2022-07-25T04:00:31;7.28;;;4.78;;
11496;SDS011;5805;51.542;7.230;2022-07-25T04:02:57;5.22;;;4.55;;
11496;SDS011;5805;51.542;7.230;2022-07-25T04:05:23;5.20;;;4.70;;
11496;SDS011;5805;51.542;7.230;2022-07-25T04:07:48;5.28;;;4.57;;
11496;SDS011;5805;51.542;7.230;2022-07-25T04:10:14;9.25;;;5.13;;
11496;SDS011;5805;51.542;7.230;2022-07-25T04:12:41;5.30;;;4.35;;
11496;SDS011;5805;51.542;7.230;2022-07-25T04:15:07;5.32;;;4.82;;
11496;SDS011;5805;51.542;7.230;2022-07-25T04:17:33;5.35;;;4.70;;
11496;SDS011;5805;51.542;7.230;2022-07-25T04:19:59;6.90;;;4.47;;
11496;SDS011;5805;51.542;7.230;2022-07-25T04:22:24;5.10;;;4.68;;
11496;SDS011;5805;51.542;7.230;2022-07-25T04:24:50;5.07;;;4.47;;
11496;SDS011;5805;51.542;7.230;2022-07-25T04:27:16;8.18;;;5.10;;
11496;SDS011;5805;51.542;7.230;2022-07-25T04:29:43;5.10;;;4.55;;
11496;SDS011;5805;51.542;7.230;2022-07-25T04:32:08;5.28;;;4.88;;
11496;SDS011;5805;51.542;7.230;2022-07-25T04:34:34;6.70;;;4.72;;
11496;SDS011;5805;51.542;7.230;2022-07-25T04:37:00;5.30;;;4.80;;
11496;SDS011;5805;51.542;7.230;2022-07-25T04:39:25;6.07;;;5.05;;
11496;SDS011;5805;51.542;7.230;2022-07-25T04:41:51;5.40;;;4.82;;
11496;SDS011;5805;51.542;7.230;2022-07-25T04:44:17;5.40;;;4.90;;
11496;SDS011;5805;51.542;7.230;2022-07-25T04:46:44;10.57;;;5.88;;
11496;SDS011;5805;51.542;7.230;2022-07-25T04:49:10;8.45;;;5.25;;
11496;SDS011;5805;51.542;7.230;2022-07-25T04:51:35;7.13;;;5.55;;
11496;SDS011;5805;51.542;7.230;2022-07-25T04:54:01;7.38;;;5.40;;
11496;SDS011;5805;51.542;7.230;2022-07-25T04:56:27;5.50;;;5.00;;
11496;SDS011;5805;51.542;7.230;2022-07-25T04:58:52;7.18;;;5.30;;
11496;SDS011;5805;51.542;7.230;2022-07-25T05:01:18;7.38;;;5.35;;
11496;SDS011;5805;51.542;7.230;2022-07-25T05:03:45;5.78;;;4.75;;
11496;SDS011;5805;51.542;7.230;2022-07-25T05:06:11;8.93;;;5.60;;
11496;SDS011;5805;51.542;7.230;2022-07-25T05:08:36;8.57;;;5.07;;
11496;SDS011;5805;51.542;7.230;2022-07-25T05:11:02;8.43;;;4.68;;
11496;SDS011;5805;51.542;7.230;2022-07-25T05:13:28;7.88;;;4.85;;
11496;SDS011;5805;51.542;7.230;2022-07-25T05:15:53;5.57;;;4.90;;
11496;SDS011;5805;51.542;7.230;2022-07-25T05:18:19;7.32;;;4.38;;
11496;SDS011;5805;51.542;7.230;2022-07-25T05:20:46;5.65;;;4.25;;
11496;SDS011;5805;51.542;7.230;2022-07-25T05:23:12;7.03;;;4.55;;
11496;SDS011;5805;51.542;7.230;2022-07-25T05:25:37;5.35;;;4.78;;
11496;SDS011;5805;51.542;7.230;2022-07-25T05:28:03;5.65;;;4.80;;
11496;SDS011;5805;51.542;7.230;2022-07-25T05:30:29;9.40;;;4.53;;
11496;SDS011;5805;51.542;7.230;2022-07-25T05:32:54;9.50;;;4.97;;
11496;SDS011;5805;51.542;7.230;2022-07-25T05:35:20;6.38;;;4.88;;
11496;SDS011;5805;51.542;7.230;2022-07-25T05:37:47;7.90;;;4.65;;
11496;SDS011;5805;51.542;7.230;2022-07-25T05:40:13;5.03;;;4.32;;
11496;SDS011;5805;51.542;7.230;2022-07-25T05:42:39;6.05;;;4.43;;
11496;SDS011;5805;51.542;7.230;2022-07-25T05:45:05;5.57;;;4.85;;
11496;SDS011;5805;51.542;7.230;2022-07-25T05:47:31;5.05;;;4.25;;
11496;SDS011;5805;51.542;7.230;2022-07-25T05:49:57;5.78;;;4.75;;
11496;SDS011;5805;51.542;7.230;2022-07-25T05:52:22;4.95;;;4.03;;
11496;SDS011;5805;51.542;7.230;2022-07-25T05:54:49;7.63;;;4.70;;
11496;SDS011;5805;51.542;7.230;2022-07-25T05:57:15;5.10;;;4.47;;
11496;SDS011;5805;51.542;7.230;2022-07-25T05:59:41;4.93;;;4.43;;
11496;SDS011;5805;51.542;7.230;2022-07-25T06:02:07;4.80;;;4.30;;
11496;SDS011;5805;51.542;7.230;2022-07-25T06:04:32;5.82;;;4.15;;
11496;SDS011;5805;51.542;7.230;2022-07-25T06:06:58;4.35;;;3.95;;
11496;SDS011;5805;51.542;7.230;2022-07-25T06:09:24;5.75;;;4.45;;
11496;SDS011;5805;51.542;7.230;2022-07-25T06:11:51;4.32;;;3.92;;
11496;SDS011;5805;51.542;7.230;2022-07-25T06:14:16;4.43;;;4.03;;
11496;SDS011;5805;51.542;7.230;2022-07-25T06:16:42;4.88;;;4.15;;
11496;SDS011;5805;51.542;7.230;2022-07-25T06:19:08;6.97;;;4.13;;
11496;SDS011;5805;51.542;7.230;2022-07-25T06:21:33;4.85;;;4.28;;
11496;SDS011;5805;51.542;7.230;2022-07-25T06:23:59;6.50;;;4.38;;
11496;SDS011;5805;51.542;7.230;2022-07-25T06:26:25;5.85;;;4.05;;
11496;SDS011;5805;51.542;7.230;2022-07-25T06:28:52;4.47;;;3.83;;
11496;SDS011;5805;51.542;7.230;2022-07-25T06:31:18;4.30;;;4.00;;
11496;SDS011;5805;51.542;7.230;2022-07-25T06:33:44;7.25;;;4.65;;
11496;SDS011;5805;51.542;7.230;2022-07-25T06:36:10;4.72;;;4.13;;
11496;SDS011;5805;51.542;7.230;2022-07-25T06:38:35;5.50;;;4.13;;
11496;SDS011;5805;51.542;7.230;2022-07-25T06:41:01;5.57;;;4.45;;
11496;SDS011;5805;51.542;7.230;2022-07-25T06:43:27;4.90;;;4.40;;
11496;SDS011;5805;51.542;7.230;2022-07-25T06:45:54;5.47;;;4.10;;
11496;SDS011;5805;51.542;7.230;2022-07-25T06:48:20;5.85;;;4.10;;
11496;SDS011;5805;51.542;7.230;2022-07-25T06:50:45;6.38;;;4.13;;
11496;SDS011;5805;51.542;7.230;2022-07-25T06:53:11;5.13;;;4.43;;
11496;SDS011;5805;51.542;7.230;2022-07-25T06:55:37;5.03;;;4.25;;
11496;SDS011;5805;51.542;7.230;2022-07-25T06:58:03;6.40;;;4.30;;
11496;SDS011;5805;51.542;7.230;2022-07-25T07:00:29;6.68;;;4.57;;
11496;SDS011;5805;51.542;7.230;2022-07-25T07:02:57;5.93;;;4.13;;
11496;SDS011;5805;51.542;7.230;2022-07-25T07:05:27;4.93;;;4.05;;
11496;SDS011;5805;51.542;7.230;2022-07-25T07:07:55;8.63;;;4.40;;
11496;SDS011;5805;51.542;7.230;2022-07-25T07:10:21;5.13;;;4.35;;
11496;SDS011;5805;51.542;7.230;2022-07-25T07:12:47;5.78;;;4.15;;
11496;SDS011;5805;51.542;7.230;2022-07-25T07:15:12;6.22;;;4.25;;
11496;SDS011;5805;51.542;7.230;2022-07-25T07:17:39;16.52;;;4.43;;
11496;SDS011;5805;51.542;7.230;2022-07-25T07:20:07;4.95;;;4.20;;
11496;SDS011;5805;51.542;7.230;2022-07-25T07:22:41;4.80;;;4.25;;
11496;SDS011;5805;51.542;7.230;2022-07-25T07:25:08;5.13;;;4.15;;
11496;SDS011;5805;51.542;7.230;2022-07-25T07:27:33;8.05;;;4.28;;
11496;SDS011;5805;51.542;7.230;2022-07-25T07:29:59;4.47;;;4.05;;
11496;SDS011;5805;51.542;7.230;2022-07-25T07:32:25;5.82;;;4.28;;
11496;SDS011;5805;51.542;7.230;2022-07-25T07:34:50;4.57;;;4.18;;
11496;SDS011;5805;51.542;7.230;2022-07-25T07:37:18;7.50;;;4.63;;
11496;SDS011;5805;51.542;7.230;2022-07-25T07:39:43;3.80;;;3.50;;
11496;SDS011;5805;51.542;7.230;2022-07-25T07:42:09;5.10;;;4.43;;
11496;SDS011;5805;51.542;7.230;2022-07-25T07:44:34;4.28;;;3.88;;
11496;SDS011;5805;51.542;7.230;2022-07-25T07:47:00;5.30;;;4.07;;
11496;SDS011;5805;51.542;7.230;2022-07-25T07:49:26;6.03;;;4.25;;
11496;SDS011;5805;51.542;7.230;2022-07-25T07:51:52;4.78;;;4.25;;
11496;SDS011;5805;51.542;7.230;2022-07-25T07:54:19;4.10;;;3.70;;
11496;SDS011;5805;51.542;7.230;2022-07-25T07:56:44;5.20;;;4.20;;
11496;SDS011;5805;51.542;7.230;2022-07-25T07:59:10;6.28;;;4.10;;
11496;SDS011;5805;51.542;7.230;2022-07-25T08:01:36;4.50;;;4.10;;
11496;SDS011;5805;51.542;7.230;2022-07-25T08:04:01;5.05;;;4.25;;
11496;SDS011;5805;51.542;7.230;2022-07-25T08:06:27;4.90;;;3.83;;
11496;SDS011;5805;51.542;7.230;2022-07-25T08:08:53;4.40;;;3.60;;
11496;SDS011;5805;51.542;7.230;2022-07-25T08:11:20;9.40;;;4.15;;
11496;SDS011;5805;51.542;7.230;2022-07-25T08:13:46;9.63;;;4.13;;
11496;SDS011;5805;51.542;7.230;2022-07-25T08:16:11;4.97;;;4.10;;
11496;SDS011;5805;51.542;7.230;2022-07-25T08:18:37;7.20;;;3.75;;
11496;SDS011;5805;51.542;7.230;2022-07-25T08:21:04;6.30;;;4.38;;
11496;SDS011;5805;51.542;7.230;2022-07-25T08:23:30;8.85;;;4.60;;
11496;SDS011;5805;51.542;7.230;2022-07-25T08:25:56;4.60;;;4.20;;
11496;SDS011;5805;51.542;7.230;2022-07-25T08:28:23;5.82;;;4.20;;
11496;SDS011;5805;51.542;7.230;2022-07-25T08:30:48;5.55;;;4.28;;
11496;SDS011;5805;51.542;7.230;2022-07-25T08:33:14;4.55;;;4.13;;
11496;SDS011;5805;51.542;7.230;2022-07-25T08:35:44;4.25;;;3.85;;
11496;SDS011;5805;51.542;7.230;2022-07-25T08:38:10;4.40;;;3.72;;
11496;SDS011;5805;51.542;7.230;2022-07-25T08:40:36;4.50;;;4.10;;
11496;SDS011;5805;51.542;7.230;2022-07-25T08:43:02;4.82;;;3.90;;
11496;SDS011;5805;51.542;7.230;2022-07-25T08:45:30;4.80;;;4.30;;
11496;SDS011;5805;51.542;7.230;2022-07-25T08:47:57;4.97;;;4.03;;
11496;SDS011;5805;51.542;7.230;2022-07-25T08:50:24;4.07;;;3.78;;
11496;SDS011;5805;51.542;7.230;2022-07-25T08:52:51;5.15;;;4.25;;
11496;SDS011;5805;51.542;7.230;2022-07-25T08:55:18;5.13;;;4.40;;
11496;SDS011;5805;51.542;7.230;2022-07-25T08:57:44;5.45;;;4.28;;
11496;SDS011;5805;51.542;7.230;2022-07-25T09:00:12;5.15;;;4.38;;
11496;SDS011;5805;51.542;7.230;2022-07-25T09:02:41;5.70;;;4.47;;
11496;SDS011;5805;51.542;7.230;2022-07-25T09:05:07;4.63;;;4.05;;
11496;SDS011;5805;51.542;7.230;2022-07-25T09:07:34;5.80;;;4.18;;
11496;SDS011;5805;51.542;7.230;2022-07-25T09:10:10;6.20;;;4.68;;
11496;SDS011;5805;51.542;7.230;2022-07-25T09:12:36;5.60;;;4.25;;
11496;SDS011;5805;51.542;7.230;2022-07-25T09:15:02;5.15;;;4.65;;
11496;SDS011;5805;51.542;7.230;2022-07-25T09:17:29;5.35;;;4.78;;
11496;SDS011;5805;51.542;7.230;2022-07-25T09:19:56;4.60;;;4.15;;
11496;SDS011;5805;51.542;7.230;2022-07-25T09:22:22;5.80;;;4.60;;
11496;SDS011;5805;51.542;7.230;2022-07-25T09:24:48;7.18;;;5.07;;
11496;SDS011;5805;51.542;7.230;2022-07-25T09:27:14;8.57;;;4.35;;
11496;SDS011;5805;51.542;7.230;2022-07-25T09:29:40;6.07;;;4.20;;
11496;SDS011;5805;51.542;7.230;2022-07-25T09:32:12;6.28;;;4.43;;
11496;SDS011;5805;51.542;7.230;2022-07-25T09:34:40;5.40;;;4.32;;
11496;SDS011;5805;51.542;7.230;2022-07-25T09:37:09;5.85;;;4.93;;
11496;SDS011;5805;51.542;7.230;2022-07-25T09:39:37;5.05;;;4.43;;
11496;SDS011;5805;51.542;7.230;2022-07-25T09:42:13;6.68;;;4.38;;
11496;SDS011;5805;51.542;7.230;2022-07-25T09:44:44;6.47;;;4.40;;
11496;SDS011;5805;51.542;7.230;2022-07-25T09:47:21;4.78;;;4.10;;
11496;SDS011;5805;51.542;7.230;2022-07-25T09:49:47;5.68;;;4.40;;
11496;SDS011;5805;51.542;7.230;2022-07-25T09:52:14;4.85;;;4.45;;
11496;SDS011;5805;51.542;7.230;2022-07-25T09:54:39;5.18;;;4.30;;
11496;SDS011;5805;51.542;7.230;2022-07-25T09:57:05;8.32;;;4.50;;
11496;SDS011;5805;51.542;7.230;2022-07-25T09:59:31;5.50;;;4.40;;
11496;SDS011;5805;51.542;7.230;2022-07-25T10:01:59;6.70;;;4.63;;
11496;SDS011;5805;51.542;7.230;2022-07-25T10:04:44;6.03;;;5.07;;
11496;SDS011;5805;51.542;7.230;2022-07-25T10:07:15;5.53;;;4.30;;
11496;SDS011;5805;51.542;7.230;2022-07-25T10:09:45;8.18;;;4.50;;
11496;SDS011;5805;51.542;7.230;2022-07-25T10:12:13;4.78;;;4.28;;
11496;SDS011;5805;51.542;7.230;2022-07-25T10:14:42;5.28;;;4.63;;
11496;SDS011;5805;51.542;7.230;2022-07-25T10:17:28;5.65;;;4.47;;
11496;SDS011;5805;51.542;7.230;2022-07-25T10:19:54;5.43;;;4.45;;
11496;SDS011;5805;51.542;7.230;2022-07-25T10:22:21;5.95;;;4.60;;
11496;SDS011;5805;51.542;7.230;2022-07-25T10:24:47;4.55;;;4.15;;
11496;SDS011;5805;51.542;7.230;2022-07-25T10:27:13;7.43;;;3.97;;
11496;SDS011;5805;51.542;7.230;2022-07-25T10:29:48;6.65;;;4.25;;
11496;SDS011;5805;51.542;7.230;2022-07-25T10:32:18;7.10;;;4.60;;
11496;SDS011;5805;51.542;7.230;2022-07-25T10:34:50;8.23;;;4.38;;
11496;SDS011;5805;51.542;7.230;2022-07-25T10:37:17;4.95;;;4.53;;
11496;SDS011;5805;51.542;7.230;2022-07-25T10:39:44;6.50;;;4.85;;
11496;SDS011;5805;51.542;7.230;2022-07-25T10:42:13;7.50;;;5.00;;
11496;SDS011;5805;51.542;7.230;2022-07-25T10:44:41;6.38;;;5.00;;
11496;SDS011;5805;51.542;7.230;2022-07-25T10:47:08;5.85;;;4.82;;
11496;SDS011;5805;51.542;7.230;2022-07-25T10:49:35;6.68;;;4.75;;
11496;SDS011;5805;51.542;7.230;2022-07-25T10:52:03;8.07;;;4.50;;
11496;SDS011;5805;51.542;7.230;2022-07-25T10:54:31;7.63;;;4.93;;
11496;SDS011;5805;51.542;7.230;2022-07-25T10:56:59;7.03;;;5.18;;
11496;SDS011;5805;51.542;7.230;2022-07-25T10:59:25;5.40;;;4.90;;
11496;SDS011;5805;51.542;7.230;2022-07-25T11:01:52;5.22;;;4.72;;
11496;SDS011;5805;51.542;7.230;2022-07-25T11:04:17;6.65;;;4.47;;
11496;SDS011;5805;51.542;7.230;2022-07-25T11:06:43;6.97;;;4.97;;
11496;SDS011;5805;51.542;7.230;2022-07-25T11:09:12;4.88;;;4.47;;
11496;SDS011;5805;51.542;7.230;2022-07-25T11:11:40;6.90;;;4.35;;
11496;SDS011;5805;51.542;7.230;2022-07-25T11:14:14;4.65;;;3.80;;
11496;SDS011;5805;51.542;7.230;2022-07-25T11:16:40;5.47;;;4.60;;
11496;SDS011;5805;51.542;7.230;2022-07-25T11:19:14;8.75;;;4.13;;
11496;SDS011;5805;51.542;7.230;2022-07-25T11:21:42;5.38;;;4.32;;
11496;SDS011;5805;51.542;7.230;2022-07-25T11:24:08;5.22;;;4.65;;
11496;SDS011;5805;51.542;7.230;2022-07-25T11:26:42;5.65;;;4.78;;
11496;SDS011;5805;51.542;7.230;2022-07-25T11:29:16;5.72;;;4.28;;
11496;SDS011;5805;51.542;7.230;2022-07-25T11:31:49;4.50;;;3.90;;
11496;SDS011;5805;51.542;7.230;2022-07-25T11:34:16;8.00;;;3.95;;
11496;SDS011;5805;51.542;7.230;2022-07-25T11:36:42;5.10;;;3.80;;
11496;SDS011;5805;51.542;7.230;2022-07-25T11:39:07;6.97;;;4.20;;
11496;SDS011;5805;51.542;7.230;2022-07-25T11:41:33;5.35;;;3.97;;
11496;SDS011;5805;51.542;7.230;2022-07-25T11:43:59;7.18;;;3.83;;
11496;SDS011;5805;51.542;7.230;2022-07-25T11:46:26;4.63;;;3.78;;
11496;SDS011;5805;51.542;7.230;2022-07-25T11:49:01;4.18;;;3.50;;
11496;SDS011;5805;51.542;7.230;2022-07-25T11:51:34;5.93;;;3.60;;
11496;SDS011;5805;51.542;7.230;2022-07-25T11:54:06;6.50;;;3.45;;
11496;SDS011;5805;51.542;7.230;2022-07-25T11:56:35;6.20;;;3.63;;
11496;SDS011;5805;51.542;7.230;2022-07-25T11:59:02;4.60;;;3.42;;
11496;SDS011;5805;51.542;7.230;2022-07-25T12:01:33;3.88;;;3.50;;
11496;SDS011;5805;51.542;7.230;2022-07-25T12:04:09;5.07;;;3.08;;
11496;SDS011;5805;51.542;7.230;2022-07-25T12:06:36;5.10;;;3.67;;
11496;SDS011;5805;51.542;7.230;2022-07-25T12:09:08;7.85;;;3.50;;
11496;SDS011;5805;51.542;7.230;2022-07-25T12:11:35;6.50;;;3.60;;
11496;SDS011;5805;51.542;7.230;2022-07-25T12:14:01;5.57;;;4.20;;
11496;SDS011;5805;51.542;7.230;2022-07-25T12:16:28;6.07;;;3.28;;
11496;SDS011;5805;51.542;7.230;2022-07-25T12:18:55;6.63;;;3.30;;
11496;SDS011;5805;51.542;7.230;2022-07-25T12:21:21;4.25;;;3.50;;
11496;SDS011;5805;51.542;7.230;2022-07-25T12:23:46;4.88;;;3.10;;
11496;SDS011;5805;51.542;7.230;2022-07-25T12:26:12;4.25;;;3.33;;
11496;SDS011;5805;51.542;7.230;2022-07-25T12:28:38;4.38;;;3.42;;
11496;SDS011;5805;51.542;7.230;2022-07-25T12:31:04;3.60;;;3.00;;
11496;SDS011;5805;51.542;7.230;2022-07-25T12:33:30;3.35;;;3.05;;
11496;SDS011;5805;51.542;7.230;2022-07-25T12:35:57;4.32;;;3.03;;
11496;SDS011;5805;51.542;7.230;2022-07-25T12:38:23;6.57;;;3.33;;
11496;SDS011;5805;51.542;7.230;2022-07-25T12:40:49;4.78;;;3.05;;
11496;SDS011;5805;51.542;7.230;2022-07-25T12:43:14;3.60;;;2.80;;
11496;SDS011;5805;51.542;7.230;2022-07-25T12:45:40;3.70;;;2.80;;
11496;SDS011;5805;51.542;7.230;2022-07-25T12:48:06;4.45;;;2.80;;
11496;SDS011;5805;51.542;7.230;2022-07-25T12:50:32;6.38;;;2.83;;
11496;SDS011;5805;51.542;7.230;2022-07-25T12:52:59;3.38;;;2.67;;
11496;SDS011;5805;51.542;7.230;2022-07-25T12:55:25;4.75;;;2.83;;
11496;SDS011;5805;51.542;7.230;2022-07-25T12:57:50;5.53;;;2.70;;
11496;SDS011;5805;51.542;7.230;2022-07-25T13:00:16;7.40;;;2.90;;
11496;SDS011;5805;51.542;7.230;2022-07-25T13:02:44;3.70;;;2.92;;
11496;SDS011;5805;51.542;7.230;2022-07-25T13:05:09;6.88;;;2.55;;
11496;SDS011;5805;51.542;7.230;2022-07-25T13:07:35;4.22;;;2.80;;
11496;SDS011;5805;51.542;7.230;2022-07-25T13:10:03;3.97;;;3.10;;
11496;SDS011;5805;51.542;7.230;2022-07-25T13:12:30;5.32;;;2.80;;
11496;SDS011;5805;51.542;7.230;2022-07-25T13:14:56;4.13;;;2.55;;
11496;SDS011;5805;51.542;7.230;2022-07-25T13:17:21;4.60;;;2.50;;
11496;SDS011;5805;51.542;7.230;2022-07-25T13:19:47;2.92;;;2.30;;
11496;SDS011;5805;51.542;7.230;2022-07-25T13:22:13;5.82;;;2.30;;
11496;SDS011;5805;51.542;7.230;2022-07-25T13:24:39;4.50;;;2.63;;
11496;SDS011;5805;51.542;7.230;2022-07-25T13:27:06;4.38;;;2.60;;
11496;SDS011;5805;51.542;7.230;2022-07-25T13:29:32;3.83;;;2.58;;
11496;SDS011;5805;51.542;7.230;2022-07-25T13:31:58;9.20;;;2.80;;
11496;SDS011;5805;51.542;7.230;2022-07-25T13:34:24;10.18;;;2.78;;
11496;SDS011;5805;51.542;7.230;2022-07-25T13:36:50;6.18;;;2.58;;
11496;SDS011;5805;51.542;7.230;2022-07-25T13:39:16;4.80;;;2.45;;
11496;SDS011;5805;51.542;7.230;2022-07-25T13:41:42;4.20;;;2.75;;
11496;SDS011;5805;51.542;7.230;2022-07-25T13:44:09;5.80;;;2.55;;
11496;SDS011;5805;51.542;7.230;2022-07-25T13:46:34;7.05;;;2.53;;
11496;SDS011;5805;51.542;7.230;2022-07-25T13:49:00;3.92;;;2.50;;
11496;SDS011;5805;51.542;7.230;2022-07-25T13:51:26;5.07;;;2.25;;
11496;SDS011;5805;51.542;7.230;2022-07-25T13:53:52;5.40;;;2.63;;
11496;SDS011;5805;51.542;7.230;2022-07-25T13:56:17;5.45;;;2.45;;
11496;SDS011;5805;51.542;7.230;2022-07-25T13:58:43;5.85;;;2.55;;
11496;SDS011;5805;51.542;7.230;2022-07-25T14:01:14;4.88;;;2.22;;
11496;SDS011;5805;51.542;7.230;2022-07-25T14:03:40;8.02;;;2.53;;
11496;SDS011;5805;51.542;7.230;2022-07-25T14:06:07;3.50;;;2.10;;
11496;SDS011;5805;51.542;7.230;2022-07-25T14:08:34;2.63;;;2.25;;
11496;SDS011;5805;51.542;7.230;2022-07-25T14:11:00;5.05;;;2.35;;
11496;SDS011;5805;51.542;7.230;2022-07-25T14:13:25;2.85;;;2.30;;
11496;SDS011;5805;51.542;7.230;2022-07-25T14:15:51;5.07;;;2.13;;
11496;SDS011;5805;51.542;7.230;2022-07-25T14:18:18;3.85;;;2.50;;
11496;SDS011;5805;51.542;7.230;2022-07-25T14:20:44;2.85;;;2.03;;
11496;SDS011;5805;51.542;7.230;2022-07-25T14:23:10;8.45;;;1.95;;
11496;SDS011;5805;51.542;7.230;2022-07-25T14:25:35;3.70;;;2.30;;
11496;SDS011;5805;51.542;7.230;2022-07-25T14:28:02;3.30;;;2.22;;
11496;SDS011;5805;51.542;7.230;2022-07-25T14:30:28;4.38;;;2.22;;
11496;SDS011;5805;51.542;7.230;2022-07-25T14:32:54;4.53;;;2.28;;
11496;SDS011;5805;51.542;7.230;2022-07-25T14:35:21;6.22;;;1.90;;
11496;SDS011;5805;51.542;7.230;2022-07-25T14:37:46;3.25;;;1.85;;
11496;SDS011;5805;51.542;7.230;2022-07-25T14:40:12;5.78;;;1.73;;
11496;SDS011;5805;51.542;7.230;2022-07-25T14:42:38;6.28;;;1.70;;
11496;SDS011;5805;51.542;7.230;2022-07-25T14:45:04;4.53;;;1.75;;
11496;SDS011;5805;51.542;7.230;2022-07-25T14:47:30;3.30;;;1.92;;
11496;SDS011;5805;51.542;7.230;2022-07-25T14:49:56;3.88;;;1.60;;
11496;SDS011;5805;51.542;7.230;2022-07-25T14:52:23;4.53;;;1.75;;
11496;SDS011;5805;51.542;7.230;2022-07-25T14:54:49;3.08;;;2.25;;
11496;SDS011;5805;51.542;7.230;2022-07-25T14:57:15;3.85;;;1.77;;